Estación Meteorológica Peña el Pijo (Robertgarden) [ 02/03/23 02:51:42 CET ]

Fecha Hora Presion(HPa) Temp (°C) Humedad % Rocio (°C) Viento ( m/s) Direccion Lluvia 1Hora(mm) Lluvia 24H(mm) LLuvia Total(mm)
2012-Jun-01 01:01:18 1014.300 12.4 56 3.8         159.54
2012-Jun-01 02:01:17 1014.000 11.4 60 3.9         159.54
2012-Jun-01 03:01:43 1013.600 10.6 63 3.8         159.54
2012-Jun-01 04:03:23 1013.300 9.6 67 3.8         159.54
2012-Jun-01 05:01:12 1013.100 9.0 68 3.4         159.54
2012-Jun-01 06:01:12 1013.000 8.7 71 3.7         159.54
2012-Jun-01 07:01:17 1012.800 8.4 71 3.5         159.54
2012-Jun-01 08:01:15 1012.700 10.9 68 5.2         159.54
2012-Jun-01 09:01:17 1012.500 17.6 52 7.6         159.54
2012-Jun-01 10:01:14 1012.400 25.1 31 6.8         159.54
2012-Jun-01 11:01:14 1012.100 28.3 19 2.3 0.9 NE     159.54
2012-Jun-01 12:01:14 1012.100 29.5 17 1.4         159.54
2012-Jun-01 13:01:17 1012.000 31.5 18 4.0         159.54
2012-Jun-01 14:01:12 1011.800 31.3 18 3.8 1.5 NE     159.54
2012-Jun-01 15:01:16 1011.500 31.0 18 3.6 3.4 NNE     159.54
2012-Jun-01 16:01:16 1011.200 32.0 16 2.4 1.4 NNE     159.54
2012-Jun-01 17:01:13 1010.800 32.0 16 2.4 1.7 ENE     159.54
2012-Jun-01 18:01:13 1010.700 31.6 18 4.0         159.54
2012-Jun-01 19:01:13 1010.900 30.1 17 2.9 2.1 NE     159.54
2012-Jun-01 20:01:18 1010.800 27.1 20 2.3 0.5 ENE     159.54
2012-Jun-01 21:01:18 1011.000 24.2 24 2.1         159.54
2012-Jun-01 22:01:12 1010.900 20.0 33 3.1         159.54
2012-Jun-01 23:01:13 1011.600 17.2 39 3.1         159.54

Temperatura Máxima:32°    Temperatura Mínima:
Presión Máxima:1014.300 Hpa    Presión Mínima:1010.700 Hpa


Volver